Main page
METAR-TAF:

METAR-TAF

Airports :

Guelmim Airport

Guelmim, Morocco

latitude: 29-01-00N, longitude: 10-04-04W, elevation: 301 m

Current weather observation

The report was made 33 minutes ago, at 07:00 UTC
Calm wind
Temperature 17°C
Humidity 52%
Pressure 1011 hPa
Visibility: 5000 m

METAR: GMAG 080700Z 00000KT 5000 NSC 17/07 Q1011 NOSIG

Time: 08:33 (07:33 UTC)

Forecast

The report was made 2 hours and 33 minutes ago, at 05:00 UTC
Forecast valid from 08 at 06 UTC to 09 at 12 UTC
Wind 8 kt from the North/Northeast
Visibility: 6000 m
Probability 30% :
Temporary
from 08 at 10 UTC to 08 at 18 UTC
Visibility: 5000 m
Few clouds at a height of 3300 ft, Towering cumulus.
thunderstorm, light rain

TAF: GMAG 080500Z 0806/0912 03008KT 6000 NSC PROB30 TEMPO 0810/0818 5000 -TSRA FEW033TCU

Weather observations and forecasts of more than 4000 airports (METAR and TAF reports).

The available stations are represented by yellow and red dots on the map.

Hover mouse over dot to see the name of the station.

Then click to see weather observations and forecasts.

To change the map : click on the green buttons with a black cross to zoom in, on the green button with a dash to zoom out, or on the green arrows for adjacent maps.


METAR-TAF: